Pagina principale
METAR-TAF:

METAR-TAF

Aeroporti :

Aeroporto di Barcellona-El Prat

Barcellona, Spagna

latitudine: 41-17N, longitudine: 002-04E, altezza: 4 m

Osservazione

Il bollettino è stato emesso 23 minuti fa, alle 03:00 UTC
Vento 11 kt da nord-ovest
Temperature 10°C
Umidità 76%
Pressione 1028 hPa
Visibilità 10 km o più
nessuna nube inferiore a 1500 m e nessun cumulonembo

METAR: LEBL 240300Z 31011KT CAVOK 10/06 Q1028 NOSIG

Ora: 04:23 (03:23 UTC)

Previsione

Il bollettino è stato emesso 23 minuti fa, alle 03:00 UTC
Previsione valida dal 24 alle 03 UTC al 24 alle 24 UTC
Vento 9 kt da ovest/nord-ovest
Visibilità: 9000 m
Poco nuvoloso ad un'altezza di 3000 ft
Temporaneamente
dal 24 alle 12 UTC al 24 alle 18 UTC
Vento 10 kt da sud/sud-ovest

TAF: LEBL 240300Z 2403/2424 30009KT 9000 FEW030 TX19/2413Z TN09/2406Z TEMPO 2412/2418 20010KT

Osservazioni e previsioni meteorologiche di più di 4000 aeroporti (messaggi METAR e TAF).

Le stazioni disponibili sono rappresentate dai dischi gialli e rossi sulla carta.

Puntare il mouse per vedere il nome della stazione.

Clicca sopra per visualizzare le osservazioni e previsioni meteorologiche.

Per cambiare la mappa : fare clic sui pulsanti verdi con una croce nera per ingrandire, il pulsante verde con un trattino per diminuire, o sulla freccia verde per le mappe adiacenti.


METAR-TAF: